Time;durP1;ratioP1;P1;durP2;ratioP2;P2;SDS_P1;SDS_P2;PMS_P1;PMS_P2;Temp;Humidity;BMP_temperature;BMP_pressure;BME280_temperature;BME280_humidity;BME280_pressure;Samples;Min_cycle;Max_cycle;Signal;HPM_P1;HPM_P2
2023/10/07 00:00:26;;;;;;;4.37;2.90;;;9.60;99.90;;;;;;5135280;27;20537;-78
2023/10/07 00:02:55;;;;;;;2.87;2.10;;;9.60;99.90;;;;;;5134671;27;20480;-78
2023/10/07 00:05:31;;;;;;;4.13;2.20;;;9.60;99.90;;;;;;5123969;27;20572;-77
2023/10/07 00:08:01;;;;;;;3.17;2.70;;;9.70;99.90;;;;;;5135944;27;20461;-78
2023/10/07 00:10:29;;;;;;;5.00;3.37;;;9.70;99.90;;;;;;5138722;27;20436;-77
2023/10/07 00:12:57;;;;;;;2.20;1.53;;;9.70;99.90;;;;;;5136318;27;20494;-78
2023/10/07 00:15:28;;;;;;;3.80;2.80;;;9.80;99.90;;;;;;5128007;27;21072;-78
2023/10/07 00:18:00;;;;;;;3.03;1.80;;;9.80;99.90;;;;;;5138294;27;20481;-77
2023/10/07 00:20:33;;;;;;;3.63;2.03;;;9.90;99.90;;;;;;5124814;27;20567;-77
2023/10/07 00:23:00;;;;;;;3.93;2.70;;;9.90;99.90;;;;;;5143097;27;20501;-78
2023/10/07 00:25:30;;;;;;;4.13;2.77;;;9.90;99.90;;;;;;5128346;27;20464;-78
2023/10/07 00:27:58;;;;;;;4.20;2.10;;;9.90;99.90;;;;;;5135047;27;20445;-78
2023/10/07 00:30:27;;;;;;;5.03;2.20;;;9.90;99.90;;;;;;5130932;27;21140;-78
2023/10/07 00:32:55;;;;;;;2.37;2.03;;;9.80;99.90;;;;;;5126540;27;20793;-78
2023/10/07 00:35:25;;;;;;;7.93;4.13;;;9.70;99.90;;;;;;5125922;27;20441;-78
2023/10/07 00:37:58;;;;;;;3.23;2.90;;;9.70;99.90;;;;;;5139937;27;20480;-78
2023/10/07 00:40:39;;;;;;;3.63;2.60;;;9.70;99.90;;;;;;5129543;27;20452;-78
2023/10/07 00:43:09;;;;;;;2.30;1.63;;;9.70;99.90;;;;;;5127417;27;20460;-78
2023/10/07 00:45:37;;;;;;;4.83;2.13;;;9.60;99.90;;;;;;5124549;27;20510;-78
2023/10/07 00:48:10;;;;;;;1.97;1.70;;;9.50;99.90;;;;;;5125607;27;21392;-78
2023/10/07 00:50:40;;;;;;;2.10;1.90;;;9.40;99.90;;;;;;5126640;27;20456;-78
2023/10/07 00:53:09;;;;;;;2.73;2.30;;;9.40;99.90;;;;;;5127520;27;20646;-78
2023/10/07 00:55:37;;;;;;;3.30;2.23;;;9.40;99.90;;;;;;5124142;27;20437;-78
2023/10/07 00:58:08;;;;;;;2.10;1.77;;;9.30;99.90;;;;;;5125550;27;20488;-78
2023/10/07 01:00:48;;;;;;;2.10;1.87;;;9.30;99.90;;;;;;5138139;27;20573;-78
2023/10/07 01:03:31;;;;;;;6.70;4.50;;;9.20;99.90;;;;;;5130556;27;20460;-78
2023/10/07 01:06:11;;;;;;;2.53;2.30;;;9.20;99.90;;;;;;5140683;27;20842;-78
2023/10/07 01:08:44;;;;;;;3.47;2.20;;;9.10;99.90;;;;;;5127228;27;20502;-78
2023/10/07 01:11:19;;;;;;;2.97;2.50;;;9.10;99.90;;;;;;5134735;27;20484;-78
2023/10/07 01:13:50;;;;;;;4.00;2.47;;;9.20;99.90;;;;;;5125796;27;20452;-77
2023/10/07 01:16:28;;;;;;;1.93;1.73;;;9.20;99.90;;;;;;5126807;27;20461;-79
2023/10/07 01:18:59;;;;;;;2.73;2.30;;;9.20;99.90;;;;;;5133247;27;20467;-78
2023/10/07 01:21:33;;;;;;;4.30;2.83;;;9.10;99.90;;;;;;5130172;27;20448;-78
2023/10/07 01:24:06;;;;;;;3.03;2.53;;;9.00;99.90;;;;;;5140644;27;20544;-78
2023/10/07 01:26:40;;;;;;;5.30;2.57;;;8.90;99.90;;;;;;5129737;27;20465;-78
2023/10/07 01:29:14;;;;;;;3.00;2.17;;;8.90;99.90;;;;;;5129120;27;20993;-78
2023/10/07 01:31:59;;;;;;;2.30;2.10;;;8.80;99.90;;;;;;5130454;27;20713;-78
2023/10/07 01:34:29;;;;;;;2.10;1.90;;;8.80;99.90;;;;;;5135659;27;20923;-78
2023/10/07 01:36:58;;;;;;;3.50;2.70;;;8.80;99.90;;;;;;5128866;27;20788;-77
2023/10/07 01:39:26;;;;;;;4.53;1.83;;;8.80;99.90;;;;;;5130688;27;20467;-78
2023/10/07 01:41:54;;;;;;;4.03;3.67;;;8.80;99.90;;;;;;5142818;27;20463;-78
2023/10/07 01:44:24;;;;;;;2.33;2.17;;;8.70;99.90;;;;;;5136911;27;20472;-78
2023/10/07 01:46:56;;;;;;;2.80;2.57;;;8.70;99.90;;;;;;5132531;27;20904;-78
2023/10/07 01:49:23;;;;;;;2.80;1.30;;;8.60;99.90;;;;;;5133470;27;20592;-78
2023/10/07 01:51:52;;;;;;;2.50;1.73;;;8.50;99.90;;;;;;5142435;27;20452;-78
2023/10/07 01:54:20;;;;;;;4.27;2.13;;;8.50;99.90;;;;;;5135123;27;20520;-78
2023/10/07 01:56:52;;;;;;;3.03;1.77;;;8.50;99.90;;;;;;5132541;27;20484;-78
2023/10/07 01:59:19;;;;;;;2.83;1.70;;;8.40;99.90;;;;;;5138496;27;20491;-78
2023/10/07 02:01:58;;;;;;;2.27;2.00;;;8.40;99.90;;;;;;5144000;27;20447;-78
2023/10/07 02:04:26;;;;;;;4.83;3.17;;;8.40;99.90;;;;;;5126797;27;20473;-78
2023/10/07 02:06:54;;;;;;;5.63;2.67;;;8.40;99.90;;;;;;5142383;27;20482;-78
2023/10/07 02:09:25;;;;;;;3.50;2.50;;;8.40;99.90;;;;;;5139619;27;20436;-77
2023/10/07 02:12:00;;;;;;;3.37;2.67;;;8.40;99.90;;;;;;5138049;27;20455;-77
2023/10/07 02:14:28;;;;;;;3.43;2.50;;;8.50;99.90;;;;;;5137422;27;21722;-78
2023/10/07 02:16:58;;;;;;;4.23;2.60;;;8.50;99.90;;;;;;5138301;27;20547;-78
2023/10/07 02:19:31;;;;;;;3.47;2.50;;;8.40;99.90;;;;;;5138951;27;20460;-78
2023/10/07 02:22:03;;;;;;;3.53;3.23;;;8.40;99.90;;;;;;5143019;27;20453;-78
2023/10/07 02:24:31;;;;;;;4.50;2.20;;;8.40;99.90;;;;;;5140047;27;20534;-78
2023/10/07 02:27:05;;;;;;;2.60;2.40;;;8.40;99.90;;;;;;5136467;27;20859;-78
2023/10/07 02:29:33;;;;;;;7.10;2.30;;;8.30;99.90;;;;;;5135911;27;20468;-78
2023/10/07 02:32:12;;;;;;;2.57;2.33;;;8.30;99.90;;;;;;5138597;27;20722;-78
2023/10/07 02:34:51;;;;;;;6.23;2.50;;;8.30;99.90;;;;;;5142526;27;20523;-78
2023/10/07 02:37:21;;;;;;;1.60;1.50;;;8.20;99.90;;;;;;5145273;27;20514;-78
2023/10/07 02:39:48;;;;;;;2.73;2.20;;;8.20;99.90;;;;;;5142998;27;21041;-78
2023/10/07 02:42:28;;;;;;;3.60;2.40;;;8.10;99.90;;;;;;5138692;27;20449;-78
2023/10/07 02:45:19;;;;;;;2.13;1.77;;;8.10;99.90;;;;;;5138323;27;20464;-78
2023/10/07 02:47:50;;;;;;;2.40;2.20;;;8.10;99.90;;;;;;5135377;27;21006;-77
2023/10/07 02:50:17;;;;;;;3.57;2.33;;;8.10;99.90;;;;;;5134349;27;20576;-78
2023/10/07 02:52:46;;;;;;;4.97;3.60;;;8.10;99.90;;;;;;5132624;27;20871;-78
2023/10/07 02:55:28;;;;;;;5.40;3.60;;;8.10;99.90;;;;;;5137255;27;20449;-78
2023/10/07 02:57:56;;;;;;;3.20;2.13;;;8.20;99.90;;;;;;5133614;27;20483;-78
2023/10/07 03:00:35;;;;;;;4.77;3.40;;;8.20;99.90;;;;;;5134661;27;20452;-78
2023/10/07 03:03:20;;;;;;;3.40;2.70;;;8.20;99.90;;;;;;5137623;27;20728;-78
2023/10/07 03:05:57;;;;;;;4.50;3.03;;;8.20;99.90;;;;;;5137191;27;20525;-78
2023/10/07 03:08:39;;;;;;;4.33;2.67;;;8.20;99.90;;;;;;5137002;27;20466;-78
2023/10/07 03:11:11;;;;;;;18.67;7.47;;;8.10;99.90;;;;;;5141493;27;20448;-78
2023/10/07 03:13:45;;;;;;;3.23;2.80;;;8.10;99.90;;;;;;5132292;27;20847;-78
2023/10/07 03:16:43;;;;;;;2.77;2.30;;;8.00;99.90;;;;;;5134364;27;20460;-77
2023/10/07 03:19:20;;;;;;;2.27;2.07;;;8.00;99.90;;;;;;5136879;27;20579;-77
2023/10/07 03:21:57;;;;;;;4.07;2.50;;;7.90;99.90;;;;;;5144641;27;20540;-78
2023/10/07 03:24:40;;;;;;;3.23;2.63;;;8.00;99.90;;;;;;5141402;27;20705;-78
2023/10/07 03:27:10;;;;;;;3.40;1.83;;;8.10;99.90;;;;;;5137200;27;20964;-78
2023/10/07 03:29:45;;;;;;;4.90;3.13;;;8.20;99.90;;;;;;5144375;27;20440;-78
2023/10/07 03:32:13;;;;;;;2.80;2.60;;;8.20;99.90;;;;;;5138655;27;20455;-78
2023/10/07 03:34:45;;;;;;;4.37;2.73;;;8.30;99.90;;;;;;5130655;27;20493;-78
2023/10/07 03:37:18;;;;;;;2.80;2.00;;;8.30;99.90;;;;;;5142773;27;20556;-78
2023/10/07 03:40:17;;;;;;;1.80;1.70;;;8.20;99.90;;;;;;5129746;27;20448;-78
2023/10/07 03:42:45;;;;;;;2.93;2.23;;;8.30;99.90;;;;;;5140878;27;20539;-78
2023/10/07 03:45:14;;;;;;;3.50;3.20;;;8.30;99.90;;;;;;5142239;27;20464;-78
2023/10/07 03:47:46;;;;;;;2.17;1.97;;;8.30;99.90;;;;;;5128776;27;20811;-77
2023/10/07 03:50:29;;;;;;;3.63;2.37;;;8.10;99.90;;;;;;5142309;27;20535;-78
2023/10/07 03:52:58;;;;;;;4.07;2.97;;;8.10;99.90;;;;;;5135136;27;20445;-77
2023/10/07 03:55:27;;;;;;;3.60;2.60;;;8.00;99.90;;;;;;5136258;27;20479;-78
2023/10/07 03:57:55;;;;;;;2.17;1.80;;;7.90;99.90;;;;;;5134691;27;20489;-78
2023/10/07 04:00:28;;;;;;;2.03;1.67;;;7.80;99.90;;;;;;5142400;27;20504;-78
2023/10/07 04:03:01;;;;;;;2.93;2.70;;;7.70;99.90;;;;;;5134533;27;20844;-78
2023/10/07 04:05:32;;;;;;;2.33;2.13;;;7.70;99.90;;;;;;5142124;27;20974;-78
2023/10/07 04:08:02;;;;;;;2.80;2.10;;;7.70;99.90;;;;;;5139793;27;20449;-78
2023/10/07 04:10:36;;;;;;;2.50;2.23;;;7.70;99.90;;;;;;5133128;27;20448;-78
2023/10/07 04:13:07;;;;;;;4.90;2.73;;;7.70;99.90;;;;;;5140043;27;20453;-78
2023/10/07 04:15:44;;;;;;;3.50;1.77;;;7.60;99.90;;;;;;5134867;27;20551;-78
2023/10/07 04:18:17;;;;;;;3.33;2.90;;;7.70;99.90;;;;;;5139898;27;20974;-77
2023/10/07 04:20:56;;;;;;;4.30;2.33;;;7.70;99.90;;;;;;5141526;27;20750;-78
2023/10/07 04:23:25;;;;;;;2.13;1.83;;;7.70;99.90;;;;;;5142815;27;20463;-78
2023/10/07 04:25:55;;;;;;;2.60;1.67;;;7.70;99.90;;;;;;5132315;27;20543;-78
2023/10/07 04:28:25;;;;;;;2.47;2.10;;;7.80;99.90;;;;;;5129668;27;20590;-78
2023/10/07 04:30:54;;;;;;;2.50;2.00;;;7.90;99.90;;;;;;5147499;27;20452;-78
2023/10/07 04:33:25;;;;;;;4.50;3.20;;;7.90;99.90;;;;;;5140449;27;20563;-78
2023/10/07 04:35:57;;;;;;;7.50;2.70;;;7.90;99.90;;;;;;5136956;27;20485;-78
2023/10/07 04:38:39;;;;;;;3.13;2.83;;;7.90;99.90;;;;;;5143452;27;20471;-78
2023/10/07 04:43:54;;;;;;;3.80;2.07;;;7.80;99.90;;;;;;5145450;27;20435;-78
2023/10/07 04:46:22;;;;;;;3.63;2.07;;;7.80;99.90;;;;;;5138508;27;20441;-78
2023/10/07 04:48:55;;;;;;;2.77;2.50;;;7.80;99.90;;;;;;5130012;27;20854;-78
2023/10/07 04:51:33;;;;;;;5.13;2.40;;;7.80;99.90;;;;;;5135221;27;20911;-78
2023/10/07 04:54:00;;;;;;;2.73;2.50;;;7.80;99.90;;;;;;5143831;27;20857;-78
2023/10/07 04:56:31;;;;;;;5.57;2.87;;;7.80;99.90;;;;;;5131163;27;20445;-78
2023/10/07 04:59:00;;;;;;;6.23;2.90;;;7.80;99.90;;;;;;5138021;27;20491;-78
2023/10/07 05:01:30;;;;;;;3.43;2.17;;;7.80;99.90;;;;;;5128577;27;20479;-78
2023/10/07 05:03:59;;;;;;;4.33;2.13;;;7.80;99.90;;;;;;5128433;27;20453;-78
2023/10/07 05:06:25;;;;;;;2.63;2.43;;;7.90;99.90;;;;;;5127539;27;20932;-78
2023/10/07 05:08:52;;;;;;;3.90;3.23;;;7.90;99.90;;;;;;5134428;27;20497;-78
2023/10/07 05:11:18;;;;;;;3.20;2.70;;;7.90;99.90;;;;;;5129417;27;20960;-78
2023/10/07 05:13:46;;;;;;;3.00;2.40;;;7.90;99.90;;;;;;5127815;27;20482;-78
2023/10/07 05:16:12;;;;;;;4.13;2.17;;;8.00;99.90;;;;;;5130184;27;20514;-78
2023/10/07 05:18:41;;;;;;;3.80;2.30;;;8.00;99.90;;;;;;5137775;27;20614;-78
2023/10/07 05:21:07;;;;;;;3.20;2.87;;;8.00;99.90;;;;;;5136413;27;20456;-78
2023/10/07 05:23:34;;;;;;;1.60;1.50;;;7.90;99.90;;;;;;5137677;27;20455;-78
2023/10/07 05:26:03;;;;;;;3.30;2.50;;;7.90;99.90;;;;;;5146295;27;20474;-78
2023/10/07 05:28:32;;;;;;;3.93;2.30;;;7.80;99.90;;;;;;5140981;27;20757;-77
2023/10/07 05:31:02;;;;;;;4.67;2.63;;;8.00;99.90;;;;;;5144216;27;20941;-78
2023/10/07 05:33:32;;;;;;;3.90;3.17;;;8.10;99.90;;;;;;5136457;27;20468;-77
2023/10/07 05:36:08;;;;;;;5.10;3.33;;;8.20;99.90;;;;;;5136296;27;20444;-78
2023/10/07 05:38:35;;;;;;;3.20;1.70;;;8.20;99.90;;;;;;5140816;27;20479;-77
2023/10/07 05:41:03;;;;;;;2.57;2.33;;;8.20;99.90;;;;;;5142622;27;20928;-77
2023/10/07 05:43:31;;;;;;;4.37;2.87;;;8.30;99.90;;;;;;5140980;27;20444;-77
2023/10/07 05:45:58;;;;;;;2.53;2.30;;;8.30;99.90;;;;;;5138288;27;20464;-77
2023/10/07 05:48:26;;;;;;;2.63;2.00;;;8.40;99.90;;;;;;5140056;27;20452;-77
2023/10/07 05:50:54;;;;;;;2.37;1.60;;;8.60;99.90;;;;;;5140940;27;20552;-77
2023/10/07 05:53:22;;;;;;;5.33;2.67;;;8.80;99.90;;;;;;5139183;27;20541;-77
2023/10/07 05:55:52;;;;;;;5.13;2.93;;;8.80;99.90;;;;;;5126863;27;20445;-78
2023/10/07 05:58:20;;;;;;;2.80;2.10;;;8.90;99.90;;;;;;5129279;27;20485;-78
2023/10/07 06:00:47;;;;;;;4.30;2.77;;;9.00;99.90;;;;;;5140304;27;20452;-77
2023/10/07 06:03:14;;;;;;;3.03;2.10;;;9.10;99.90;;;;;;5144167;27;20514;-77
2023/10/07 06:05:43;;;;;;;4.20;2.67;;;9.30;99.90;;;;;;5143595;27;20484;-77
2023/10/07 06:08:10;;;;;;;9.20;2.50;;;9.50;99.90;;;;;;5134110;27;20492;-77
2023/10/07 06:10:39;;;;;;;2.07;1.90;;;9.60;99.90;;;;;;5137577;27;20449;-77
2023/10/07 06:13:08;;;;;;;2.20;2.00;;;9.70;99.90;;;;;;5139829;27;20509;-77
2023/10/07 06:15:37;;;;;;;2.67;2.00;;;9.70;99.90;;;;;;5139906;27;20580;-77
2023/10/07 06:18:05;;;;;;;3.43;2.50;;;9.80;99.90;;;;;;5145210;27;20458;-77
2023/10/07 06:20:37;;;;;;;2.50;1.57;;;9.80;99.90;;;;;;5139662;27;20609;-77
2023/10/07 06:23:13;;;;;;;5.33;2.17;;;10.00;99.90;;;;;;5145693;27;20448;-77
2023/10/07 06:25:48;;;;;;;3.17;2.40;;;10.10;99.90;;;;;;5129273;27;20547;-77
2023/10/07 06:28:25;;;;;;;2.87;2.50;;;10.10;99.90;;;;;;5145944;27;20466;-77
2023/10/07 06:31:01;;;;;;;4.07;2.67;;;10.20;99.90;;;;;;5143076;27;20778;-77
2023/10/07 06:33:31;;;;;;;2.87;2.27;;;10.40;99.90;;;;;;5147804;27;20915;-77
2023/10/07 06:35:59;;;;;;;2.60;1.73;;;10.50;99.90;;;;;;5148235;27;20484;-77
2023/10/07 06:38:26;;;;;;;3.23;2.63;;;10.60;99.90;;;;;;5146740;27;20475;-77
2023/10/07 06:40:56;;;;;;;5.63;3.87;;;10.80;99.90;;;;;;5142580;27;20907;-77
2023/10/07 06:43:25;;;;;;;4.07;2.53;;;11.00;99.90;;;;;;5141071;27;20915;-78
2023/10/07 06:45:54;;;;;;;3.60;2.83;;;11.10;99.90;;;;;;5142650;27;20536;-78
2023/10/07 06:48:27;;;;;;;2.60;2.27;;;11.20;99.90;;;;;;5135103;27;20460;-78
2023/10/07 06:50:54;;;;;;;5.93;3.07;;;11.30;99.90;;;;;;5139394;27;20456;-77
2023/10/07 06:53:22;;;;;;;3.80;3.23;;;11.40;99.90;;;;;;5139330;27;20466;-77
2023/10/07 06:55:51;;;;;;;4.53;3.57;;;11.40;99.90;;;;;;5138033;27;20512;-77
2023/10/07 06:58:22;;;;;;;3.50;2.60;;;11.50;99.90;;;;;;5140310;27;20452;-77
2023/10/07 07:00:56;;;;;;;8.33;4.90;;;11.60;99.90;;;;;;5144508;27;20496;-77
2023/10/07 07:03:25;;;;;;;2.97;2.67;;;11.70;99.90;;;;;;5146908;27;20452;-77
2023/10/07 07:05:54;;;;;;;3.80;3.20;;;11.90;99.90;;;;;;5145481;27;20478;-77
2023/10/07 07:08:23;;;;;;;3.70;3.30;;;12.00;99.90;;;;;;5144697;27;20452;-77
2023/10/07 07:10:55;;;;;;;3.73;3.43;;;12.10;99.90;;;;;;5142523;27;20530;-77
2023/10/07 07:13:27;;;;;;;3.10;2.80;;;12.20;99.90;;;;;;5146312;27;20456;-77
2023/10/07 07:15:57;;;;;;;8.13;3.57;;;12.30;99.90;;;;;;5135959;27;20461;-77
2023/10/07 07:18:26;;;;;;;3.83;3.23;;;12.40;99.90;;;;;;5142393;27;20449;-77
2023/10/07 07:21:00;;;;;;;12.00;5.87;;;12.60;99.90;;;;;;5133162;27;20485;-77
2023/10/07 07:23:35;;;;;;;6.43;4.27;;;12.70;99.90;;;;;;5147479;27;21057;-77
2023/10/07 07:26:09;;;;;;;4.33;3.93;;;12.70;99.90;;;;;;5144261;27;20872;-77
2023/10/07 07:28:42;;;;;;;4.10;3.43;;;12.80;99.90;;;;;;5145875;27;20473;-77
2023/10/07 07:31:12;;;;;;;4.50;3.20;;;12.90;99.90;;;;;;5148524;27;20533;-77
2023/10/07 07:33:41;;;;;;;4.53;3.00;;;13.00;99.90;;;;;;5139990;27;20490;-77
2023/10/07 07:36:18;;;;;;;6.13;3.93;;;12.90;99.90;;;;;;5147265;27;21169;-77
2023/10/07 07:38:46;;;;;;;5.33;4.73;;;13.00;99.90;;;;;;5136279;27;20916;-77
2023/10/07 07:41:27;;;;;;;7.60;4.70;;;13.10;99.90;;;;;;5145630;27;20455;-77
2023/10/07 07:43:59;;;;;;;4.27;3.33;;;13.20;99.90;;;;;;5138122;27;20452;-77
2023/10/07 07:46:28;;;;;;;4.83;3.07;;;13.40;99.90;;;;;;5141233;27;20451;-77
2023/10/07 07:49:05;;;;;;;5.70;4.30;;;13.50;99.90;;;;;;5139923;27;20463;-77
2023/10/07 07:51:37;;;;;;;4.30;3.73;;;13.60;99.90;;;;;;5144282;27;20451;-77
2023/10/07 07:54:07;;;;;;;6.73;4.23;;;13.60;99.90;;;;;;5135178;27;20472;-77
2023/10/07 07:56:35;;;;;;;5.73;3.53;;;13.70;99.90;;;;;;5130894;27;20929;-77
2023/10/07 07:59:13;;;;;;;4.30;3.90;;;13.70;99.90;;;;;;5138746;27;20573;-77
2023/10/07 08:01:44;;;;;;;2.90;2.53;;;13.80;99.90;;;;;;5142985;27;20463;-77
2023/10/07 08:04:17;;;;;;;4.53;4.13;;;13.90;99.90;;;;;;5138611;27;20492;-78
2023/10/07 08:06:47;;;;;;;4.60;3.70;;;14.00;99.90;;;;;;5142678;27;20513;-78
2023/10/07 08:09:19;;;;;;;4.37;3.60;;;14.10;99.90;;;;;;5134561;27;20516;-78
2023/10/07 08:11:47;;;;;;;4.17;3.73;;;14.30;99.90;;;;;;5135974;27;20440;-77
2023/10/07 08:14:17;;;;;;;6.30;4.67;;;14.30;99.90;;;;;;5147253;27;20465;-77
2023/10/07 08:16:53;;;;;;;6.93;3.87;;;14.40;99.90;;;;;;5143233;27;21106;-77
2023/10/07 08:19:23;;;;;;;4.87;4.27;;;14.40;99.90;;;;;;5143525;27;20472;-77
2023/10/07 08:21:52;;;;;;;5.70;3.83;;;14.40;99.90;;;;;;5142358;27;20941;-77
2023/10/07 08:24:20;;;;;;;6.00;3.97;;;14.40;99.90;;;;;;5141910;27;20544;-78
2023/10/07 08:26:49;;;;;;;4.77;3.37;;;14.40;99.90;;;;;;5139788;27;20534;-78
2023/10/07 08:29:34;;;;;;;4.17;3.50;;;14.50;99.90;;;;;;5141988;27;20559;-78
2023/10/07 08:32:10;;;;;;;4.90;3.33;;;14.50;99.90;;;;;;5145829;27;20469;-77
2023/10/07 08:34:37;;;;;;;4.83;3.90;;;14.50;99.90;;;;;;5136919;27;20550;-77
2023/10/07 08:37:08;;;;;;;6.33;3.83;;;14.60;99.90;;;;;;5138652;27;20473;-77
2023/10/07 08:39:44;;;;;;;5.40;3.73;;;14.70;99.90;;;;;;5138000;27;20497;-77
2023/10/07 08:42:17;;;;;;;6.47;3.10;;;14.80;99.90;;;;;;5135201;27;20526;-77
2023/10/07 08:44:57;;;;;;;4.80;4.00;;;14.80;99.90;;;;;;5140067;27;20464;-77
2023/10/07 08:47:26;;;;;;;9.87;5.13;;;14.70;99.90;;;;;;5135452;27;20482;-78
2023/10/07 08:49:56;;;;;;;6.40;3.60;;;14.70;99.90;;;;;;5131964;27;20878;-77
2023/10/07 08:52:28;;;;;;;5.90;4.00;;;14.80;99.90;;;;;;5140139;27;20831;-77
2023/10/07 08:54:55;;;;;;;4.73;3.67;;;14.80;99.90;;;;;;5126752;27;20990;-78
2023/10/07 08:57:23;;;;;;;4.90;3.97;;;14.80;99.90;;;;;;5138155;27;20528;-78
2023/10/07 08:59:52;;;;;;;3.40;3.10;;;15.00;99.90;;;;;;5139117;27;20493;-78
2023/10/07 09:02:26;;;;;;;6.20;4.17;;;14.90;99.90;;;;;;5139116;27;20505;-78
2023/10/07 09:04:55;;;;;;;4.50;3.73;;;14.90;99.90;;;;;;5136412;27;20487;-78
2023/10/07 09:07:23;;;;;;;7.00;4.40;;;14.90;99.90;;;;;;5135567;27;20489;-78
2023/10/07 09:09:52;;;;;;;5.53;4.63;;;15.00;99.90;;;;;;5136526;27;20521;-77
2023/10/07 09:12:29;;;;;;;4.20;3.70;;;15.10;99.90;;;;;;5140875;27;20521;-78
2023/10/07 09:15:00;;;;;;;6.40;4.03;;;15.20;99.90;;;;;;5136416;27;20799;-78
2023/10/07 09:17:27;;;;;;;6.50;4.17;;;15.20;99.90;;;;;;5136791;27;20463;-78
2023/10/07 09:19:58;;;;;;;5.50;4.90;;;15.20;99.90;;;;;;5130896;27;21033;-78
2023/10/07 09:22:27;;;;;;;5.97;4.43;;;15.30;99.90;;;;;;5133417;27;20879;-78
2023/10/07 09:25:08;;;;;;;5.43;3.80;;;15.20;99.90;;;;;;5133152;27;20541;-77
2023/10/07 09:27:37;;;;;;;5.77;4.77;;;15.30;99.90;;;;;;5144605;27;20438;-77
2023/10/07 09:30:34;;;;;;;5.20;4.60;;;15.30;99.90;;;;;;5131441;27;20945;-77
2023/10/07 09:32:56;;;;;;;5.53;5.00;;;15.30;99.90;;;;;;5137666;27;21104;-78
2023/10/07 09:35:23;;;;;;;5.63;4.27;;;15.60;99.90;;;;;;5132442;27;21018;-77
2023/10/07 09:37:53;;;;;;;7.50;4.80;;;15.70;99.90;;;;;;5133734;27;20473;-78
2023/10/07 09:41:06;;;;;;;5.17;3.13;;;15.70;99.90;;;;;;5128317;27;20479;-77
2023/10/07 09:43:13;;;;;;;5.13;4.40;;;15.80;99.90;;;;;;5132915;27;20440;-77
2023/10/07 09:45:43;;;;;;;4.70;4.30;;;15.90;99.90;;;;;;5130918;27;20535;-78
2023/10/07 09:48:09;;;;;;;7.67;5.53;;;16.00;99.90;;;;;;5137493;27;20488;-78
2023/10/07 09:50:38;;;;;;;8.50;4.90;;;16.10;99.90;;;;;;5132640;27;20528;-78
2023/10/07 09:53:27;;;;;;;6.03;5.40;;;16.30;99.90;;;;;;5136222;27;20464;-78
2023/10/07 09:56:12;;;;;;;5.53;4.57;;;16.40;99.90;;;;;;5126213;27;20574;-78
2023/10/07 09:58:59;;;;;;;5.63;5.03;;;16.60;99.90;;;;;;5135255;27;20978;-79
2023/10/07 10:01:37;;;;;;;5.73;4.87;;;16.70;99.90;;;;;;5143608;27;21044;-78
2023/10/07 10:04:40;;;;;;;5.90;5.30;;;16.90;99.90;;;;;;5128905;27;20518;-78
2023/10/07 10:07:32;;;;;;;9.40;5.23;;;17.10;99.90;;;;;;5141528;27;20459;-78
2023/10/07 10:10:07;;;;;;;7.80;6.07;;;17.20;99.20;;;;;;5130278;27;20528;-78
2023/10/07 10:12:49;;;;;;;6.80;4.60;;;17.20;97.80;;;;;;5138251;27;20454;-78
2023/10/07 10:18:02;;;;;;;6.47;5.70;;;17.40;98.00;;;;;;5134903;27;20797;-78
2023/10/07 10:20:42;;;;;;;4.30;3.77;;;17.30;93.80;;;;;;5131517;27;21074;-78
2023/10/07 10:23:18;;;;;;;5.23;4.27;;;17.40;95.20;;;;;;5127294;27;20463;-78
2023/10/07 10:25:48;;;;;;;4.97;4.47;;;17.50;95.70;;;;;;5135019;27;20462;-78
2023/10/07 10:28:27;;;;;;;5.90;5.10;;;17.50;93.00;;;;;;5135408;27;20878;-78
2023/10/07 10:30:55;;;;;;;4.90;4.10;;;17.50;93.20;;;;;;5140981;27;20452;-78
2023/10/07 10:33:25;;;;;;;7.03;5.40;;;17.60;92.50;;;;;;5143542;27;20973;-78
2023/10/07 10:35:57;;;;;;;7.90;4.70;;;17.70;95.30;;;;;;5133838;27;20539;-78
2023/10/07 10:38:35;;;;;;;9.17;5.70;;;17.70;93.40;;;;;;5138857;27;20520;-78
2023/10/07 10:41:04;;;;;;;6.00;4.87;;;17.90;93.90;;;;;;5133972;27;21030;-78
2023/10/07 10:43:32;;;;;;;6.53;3.97;;;18.10;92.50;;;;;;5136832;27;20464;-78
2023/10/07 10:46:04;;;;;;;5.30;4.80;;;18.00;90.50;;;;;;5139799;27;20556;-78
2023/10/07 10:48:34;;;;;;;5.37;4.77;;;18.30;93.40;;;;;;5144259;27;20456;-78
2023/10/07 10:51:05;;;;;;;5.37;3.50;;;18.30;90.10;;;;;;5139346;27;20459;-77
2023/10/07 10:53:33;;;;;;;6.17;3.63;;;18.40;87.80;;;;;;5142410;27;20455;-77
2023/10/07 10:56:00;;;;;;;6.27;4.47;;;18.60;90.30;;;;;;5138002;27;21130;-77
2023/10/07 10:58:27;;;;;;;6.33;3.40;;;18.70;85.60;;;;;;5146344;27;20476;-78
2023/10/07 11:00:55;;;;;;;8.57;3.40;;;18.60;84.00;;;;;;5134759;27;20983;-77
2023/10/07 11:03:22;;;;;;;5.33;4.13;;;18.60;81.90;;;;;;5138638;27;20557;-77
2023/10/07 11:05:52;;;;;;;2.90;2.43;;;18.80;82.20;;;;;;5142254;27;20537;-77
2023/10/07 11:08:22;;;;;;;7.20;3.20;;;19.00;80.30;;;;;;5135827;27;20464;-77
2023/10/07 11:10:52;;;;;;;5.40;4.30;;;19.10;75.20;;;;;;5140432;27;20448;-77
2023/10/07 11:13:19;;;;;;;4.23;3.10;;;19.20;80.10;;;;;;5139985;27;20924;-77
2023/10/07 11:15:58;;;;;;;3.73;2.63;;;19.20;68.70;;;;;;5135597;27;21092;-77
2023/10/07 11:18:30;;;;;;;2.63;1.90;;;19.00;66.50;;;;;;5140536;27;20460;-78
2023/10/07 11:21:01;;;;;;;5.70;2.97;;;19.00;66.10;;;;;;5136001;27;20927;-77
2023/10/07 11:23:28;;;;;;;3.80;2.97;;;19.00;65.30;;;;;;5147181;27;20447;-77
2023/10/07 11:25:56;;;;;;;4.97;2.20;;;19.00;64.50;;;;;;5142440;27;20478;-77
2023/10/07 11:28:23;;;;;;;3.10;2.47;;;19.10;65.50;;;;;;5136555;27;20456;-77
2023/10/07 11:30:51;;;;;;;4.63;2.10;;;19.10;60.10;;;;;;5138424;27;20906;-77
2023/10/07 11:33:19;;;;;;;3.37;2.30;;;19.10;59.50;;;;;;5143281;27;20458;-77
2023/10/07 11:35:59;;;;;;;3.43;2.20;;;19.20;57.90;;;;;;5139482;27;20740;-77
2023/10/07 11:38:26;;;;;;;4.83;3.20;;;19.30;60.60;;;;;;5144360;27;20997;-77
2023/10/07 11:40:55;;;;;;;3.60;2.60;;;19.30;57.50;;;;;;5144736;27;20549;-78
2023/10/07 11:43:22;;;;;;;2.57;1.40;;;19.30;58.80;;;;;;5144930;27;21374;-77
2023/10/07 11:45:50;;;;;;;4.27;1.87;;;19.50;60.80;;;;;;5138647;27;20840;-77
2023/10/07 11:48:19;;;;;;;8.63;2.30;;;19.60;57.90;;;;;;5133118;27;20521;-78
2023/10/07 11:50:47;;;;;;;1.10;1.00;;;19.80;54.80;;;;;;5129489;27;20970;-77
2023/10/07 11:53:15;;;;;;;2.87;1.87;;;19.90;51.10;;;;;;5135249;27;20459;-78
2023/10/07 11:55:43;;;;;;;1.93;0.93;;;19.80;48.20;;;;;;5130583;27;20536;-78
2023/10/07 11:58:15;;;;;;;2.67;1.33;;;20.00;46.80;;;;;;5134338;27;20530;-77
2023/10/07 12:00:42;;;;;;;3.67;1.30;;;20.20;53.10;;;;;;5147587;27;20476;-78
2023/10/07 12:03:10;;;;;;;1.67;1.00;;;20.40;46.50;;;;;;5131479;27;21125;-77
2023/10/07 12:05:39;;;;;;;2.33;1.10;;;20.50;43.20;;;;;;5137487;27;20987;-77
2023/10/07 12:08:11;;;;;;;1.63;1.10;;;20.50;43.10;;;;;;5140167;27;20463;-77
2023/10/07 12:10:40;;;;;;;1.73;0.97;;;20.40;39.40;;;;;;5142268;27;20471;-77
2023/10/07 12:13:11;;;;;;;1.63;0.90;;;20.50;43.20;;;;;;5132385;27;20485;-76
2023/10/07 12:15:39;;;;;;;2.73;1.73;;;20.40;41.30;;;;;;5134205;27;20793;-78
2023/10/07 12:18:07;;;;;;;2.67;1.43;;;20.40;40.50;;;;;;5133453;27;20838;-78
2023/10/07 12:20:34;;;;;;;3.97;1.37;;;20.60;43.80;;;;;;5128755;27;20487;-78
2023/10/07 12:23:02;;;;;;;3.30;1.87;;;20.90;44.20;;;;;;5132152;27;20496;-78
2023/10/07 12:25:31;;;;;;;2.13;1.30;;;21.10;43.10;;;;;;5135751;27;20480;-77
2023/10/07 12:28:05;;;;;;;7.93;1.70;;;20.90;37.70;;;;;;5135121;27;20468;-77
2023/10/07 12:30:33;;;;;;;3.03;1.10;;;20.90;37.70;;;;;;5135994;27;21008;-80
2023/10/07 12:33:01;;;;;;;3.50;1.03;;;20.90;39.50;;;;;;5134647;27;20809;-80
2023/10/07 12:35:31;;;;;;;3.47;0.93;;;21.00;39.30;;;;;;5136489;27;20512;-80
2023/10/07 12:38:00;;;;;;;4.60;1.00;;;21.00;41.50;;;;;;5139244;27;20462;-80
2023/10/07 12:40:28;;;;;;;3.40;1.87;;;21.00;39.50;;;;;;5129675;27;20476;-80
2023/10/07 12:42:57;;;;;;;2.53;1.13;;;20.90;41.40;;;;;;5137061;27;20539;-81
2023/10/07 12:45:25;;;;;;;3.30;1.23;;;20.90;37.70;;;;;;5133557;27;20535;-81
2023/10/07 12:47:52;;;;;;;3.70;2.90;;;21.00;38.90;;;;;;5122270;27;20459;-81
2023/10/07 12:50:28;;;;;;;5.67;1.60;;;20.80;36.30;;;;;;5126914;27;20560;-81
2023/10/07 12:52:58;;;;;;;3.20;1.73;;;20.80;37.70;;;;;;5135511;27;20950;-81
2023/10/07 12:55:32;;;;;;;5.13;1.50;;;20.80;38.30;;;;;;5131454;27;20460;-78
2023/10/07 12:58:05;;;;;;;2.20;1.03;;;20.70;36.90;;;;;;5126443;27;20448;-79
2023/10/07 13:00:34;;;;;;;2.07;0.93;;;20.60;36.50;;;;;;5142309;27;20480;-79
2023/10/07 13:03:05;;;;;;;1.97;0.90;;;20.60;36.00;;;;;;5138209;27;20470;-79
2023/10/07 13:05:37;;;;;;;2.70;1.07;;;20.60;35.70;;;;;;5134489;27;20487;-79
2023/10/07 13:08:08;;;;;;;3.70;1.63;;;20.60;35.00;;;;;;5125910;27;20931;-78
2023/10/07 13:10:35;;;;;;;5.10;1.67;;;20.60;33.30;;;;;;5140128;27;20455;-78
2023/10/07 13:13:04;;;;;;;2.00;0.90;;;20.50;32.70;;;;;;5130694;27;20465;-78
2023/10/07 13:15:34;;;;;;;4.37;0.90;;;20.40;31.50;;;;;;5132778;27;20466;-78
2023/10/07 13:18:02;;;;;;;1.97;1.10;;;20.40;31.20;;;;;;5133341;27;20538;-78